createdAt,value
2022-10-24T00:01:35.248Z,100399.28
2022-10-24T00:04:01.817Z,100402.00
2022-10-24T00:06:28.275Z,100405.13
2022-10-24T00:08:54.743Z,100397.31
2022-10-24T00:11:26.387Z,100392.63
2022-10-24T00:13:54.403Z,100390.28
2022-10-24T00:16:20.913Z,100387.94
2022-10-24T00:18:48.115Z,100391.06
2022-10-24T00:21:14.766Z,100384.78
2022-10-24T00:23:41.250Z,100392.22
2022-10-24T00:26:07.695Z,100393.38
2022-10-24T00:28:36.697Z,100390.66
2022-10-24T00:31:04.677Z,100390.25
2022-10-24T00:33:31.836Z,100384.00
2022-10-24T00:35:58.355Z,100374.22
2022-10-24T00:38:25.203Z,100378.13
2022-10-24T00:40:51.732Z,100378.13
2022-10-24T00:43:21.241Z,100382.03
2022-10-24T00:45:57.041Z,100368.78
2022-10-24T00:48:40.023Z,100370.72
2022-10-24T00:51:24.708Z,100366.44
2022-10-24T00:56:28.730Z,100360.59
2022-10-24T00:58:58.034Z,100369.56
2022-10-24T01:01:25.747Z,100366.84
2022-10-24T01:03:52.368Z,100364.13
2022-10-24T01:06:45.625Z,100364.09
2022-10-24T01:09:49.480Z,100361.00
2022-10-24T01:12:18.835Z,100354.38
2022-10-24T01:14:59.244Z,100359.44
2022-10-24T01:17:33.107Z,100351.63
2022-10-24T01:20:24.387Z,100350.06
2022-10-24T01:22:53.796Z,100348.09
2022-10-24T01:25:31.737Z,100348.91
2022-10-24T01:28:15.339Z,100336.38
2022-10-24T01:30:47.509Z,100337.22
2022-10-24T01:33:27.273Z,100345.41
2022-10-24T01:36:03.013Z,100339.56
2022-10-24T01:38:38.762Z,100338.75
2022-10-24T01:41:09.805Z,100333.69
2022-10-24T01:43:49.704Z,100323.13
2022-10-24T01:46:22.710Z,100321.94
2022-10-24T01:48:58.163Z,100326.63
2022-10-24T01:51:27.412Z,100327.41
2022-10-24T01:53:54.822Z,100319.63
2022-10-24T01:56:21.435Z,100317.63
2022-10-24T01:58:47.887Z,100317.63
2022-10-24T02:01:19.568Z,100316.88
2022-10-24T02:03:50.605Z,100314.13
2022-10-24T02:06:22.778Z,100314.53
2022-10-24T02:08:55.007Z,100320.00
2022-10-24T02:11:21.583Z,100308.25
2022-10-24T02:13:59.999Z,100307.88
2022-10-24T02:16:26.487Z,100302.41
2022-10-24T02:18:56.338Z,100305.94
2022-10-24T02:21:36.586Z,100304.78
2022-10-24T02:24:07.326Z,100306.34
2022-10-24T02:26:44.842Z,100305.16
2022-10-24T02:29:15.822Z,100302.41
2022-10-24T02:31:48.829Z,100303.22
2022-10-24T02:34:18.196Z,100309.88
2022-10-24T02:36:46.910Z,100306.72
2022-10-24T02:39:15.355Z,100302.44
2022-10-24T02:41:44.231Z,100310.25
2022-10-24T02:44:13.548Z,100316.09
2022-10-24T02:46:42.015Z,100307.09
2022-10-24T02:49:08.497Z,100304.38
2022-10-24T02:51:41.283Z,100303.59
2022-10-24T02:54:07.921Z,100309.06
2022-10-24T02:56:37.077Z,100305.94
2022-10-24T02:59:03.625Z,100307.91
2022-10-24T03:01:30.209Z,100298.53
2022-10-24T03:03:56.698Z,100308.28
2022-10-24T03:06:23.142Z,100307.13
2022-10-24T03:08:49.554Z,100301.66
2022-10-24T03:11:16.068Z,100309.06
2022-10-24T03:13:42.483Z,100314.94
2022-10-24T03:16:11.672Z,100302.03
2022-10-24T03:18:40.470Z,100305.16
2022-10-24T03:21:06.993Z,100303.97
2022-10-24T03:23:33.426Z,100309.84
2022-10-24T03:26:00.191Z,100314.94
2022-10-24T03:28:26.709Z,100310.22
2022-10-24T03:30:53.625Z,100311.41
2022-10-24T03:33:20.290Z,100320.78
2022-10-24T03:35:46.848Z,100319.63
2022-10-24T03:38:13.308Z,100332.09
2022-10-24T03:40:39.828Z,100316.84
2022-10-24T03:43:06.313Z,100318.44
2022-10-24T03:45:32.814Z,100304.75
2022-10-24T03:47:59.267Z,100313.38
2022-10-24T03:50:25.960Z,100328.19
2022-10-24T03:52:52.434Z,100310.66
2022-10-24T03:55:18.913Z,100314.16
2022-10-24T03:57:45.644Z,100305.94
2022-10-24T04:00:12.472Z,100307.53
2022-10-24T04:02:40.342Z,100307.53
2022-10-24T04:05:09.717Z,100310.25
2022-10-24T04:07:36.708Z,100309.09
2022-10-24T04:10:03.765Z,100299.31
2022-10-24T04:12:30.181Z,100299.69
2022-10-24T04:15:00.894Z,100292.25
2022-10-24T04:17:30.437Z,100295.78
2022-10-24T04:19:56.933Z,100300.88
2022-10-24T04:22:23.352Z,100307.88
2022-10-24T04:24:50.031Z,100308.66
2022-10-24T04:27:16.480Z,100305.16
2022-10-24T04:29:42.934Z,100300.09
2022-10-24T04:32:09.394Z,100296.19
2022-10-24T04:34:36.342Z,100296.59
2022-10-24T04:37:03.292Z,100300.50
2022-10-24T04:39:29.807Z,100308.69
2022-10-24T04:41:56.313Z,100294.22
2022-10-24T04:44:22.938Z,100297.75
2022-10-24T04:46:51.325Z,100301.25
2022-10-24T04:49:18.077Z,100296.22
2022-10-24T04:51:44.610Z,100300.91
2022-10-24T04:54:11.034Z,100305.94
2022-10-24T04:56:37.474Z,100295.38
2022-10-24T04:59:03.914Z,100290.72
2022-10-24T05:01:30.441Z,100295.78
2022-10-24T05:03:56.973Z,100303.22
2022-10-24T05:06:23.482Z,100298.91
2022-10-24T05:08:49.910Z,100307.50
2022-10-24T05:11:16.337Z,100301.66
2022-10-24T05:13:42.822Z,100297.75
2022-10-24T05:16:09.282Z,100300.91
2022-10-24T05:18:35.717Z,100306.75
2022-10-24T05:21:02.176Z,100305.94
2022-10-24T05:23:28.622Z,100308.69
2022-10-24T05:25:55.147Z,100311.00
2022-10-24T05:28:21.692Z,100321.19
2022-10-24T05:30:48.198Z,100312.19
2022-10-24T05:33:14.916Z,100314.53
2022-10-24T05:35:41.928Z,100306.31
2022-10-24T05:38:08.462Z,100309.06
2022-10-24T05:40:35.029Z,100309.47
2022-10-24T05:43:01.536Z,100304.38
2022-10-24T05:45:28.069Z,100310.25
2022-10-24T05:47:54.525Z,100305.16
2022-10-24T05:50:20.983Z,100307.53
2022-10-24T05:52:47.465Z,100311.84
2022-10-24T05:55:16.930Z,100309.47
2022-10-24T05:57:45.090Z,100303.63
2022-10-24T06:00:14.346Z,100311.44
2022-10-24T06:02:41.435Z,100305.19
2022-10-24T06:05:09.464Z,100301.66
2022-10-24T06:07:36.989Z,100307.50
2022-10-24T06:10:05.601Z,100303.63
2022-10-24T06:12:33.047Z,100298.13
2022-10-24T06:15:00.596Z,100308.28
2022-10-24T06:17:27.492Z,100309.06
2022-10-24T06:19:54.292Z,100317.25
2022-10-24T06:22:24.052Z,100319.59
2022-10-24T06:24:50.934Z,100333.28
2022-10-24T06:27:17.461Z,100332.13
2022-10-24T06:29:44.185Z,100331.34
2022-10-24T06:32:10.725Z,100335.25
2022-10-24T06:34:37.497Z,100341.50
2022-10-24T06:37:04.225Z,100341.50
2022-10-24T06:39:30.940Z,100343.84
2022-10-24T06:41:57.367Z,100347.75
2022-10-24T06:44:23.959Z,100352.81
2022-10-24T06:46:50.396Z,100350.47
2022-10-24T06:49:17.327Z,100343.78
2022-10-24T06:51:43.871Z,100351.63
2022-10-24T06:54:10.436Z,100355.91
2022-10-24T06:56:36.919Z,100356.31
2022-10-24T06:59:08.823Z,100351.22
2022-10-24T07:01:35.890Z,100370.78
2022-10-24T07:04:02.544Z,100387.56
2022-10-24T07:06:30.072Z,100369.19
2022-10-24T07:08:58.877Z,100375.84
2022-10-24T07:11:26.473Z,100384.03
2022-10-24T07:13:55.293Z,100393.81
2022-10-24T07:16:25.730Z,100401.63
2022-10-24T07:18:52.288Z,100400.47
2022-10-24T07:21:29.778Z,100402.41
2022-10-24T07:23:56.899Z,100411.41
2022-10-24T07:26:24.948Z,100404.38
2022-10-24T07:28:54.813Z,100413.75
2022-10-24T07:31:23.597Z,100421.59
2022-10-24T07:33:51.038Z,100417.63
2022-10-24T07:36:23.930Z,100427.81
2022-10-24T07:38:53.028Z,100429.38
2022-10-24T07:41:19.628Z,100416.09
2022-10-24T07:43:46.596Z,100425.84
2022-10-24T07:46:15.084Z,100416.06
2022-10-24T07:48:42.539Z,100435.63
2022-10-24T07:51:11.781Z,100414.47
2022-10-24T07:53:38.374Z,100430.09
2022-10-24T07:56:09.286Z,100433.25
2022-10-24T07:58:36.953Z,100430.91
2022-10-24T08:01:06.211Z,100437.19
2022-10-24T08:03:32.788Z,100436.38
2022-10-24T08:05:59.815Z,100441.84
2022-10-24T08:08:36.530Z,100441.06
2022-10-24T08:11:16.393Z,100462.19
2022-10-24T08:13:43.154Z,100455.97
2022-10-24T08:16:12.570Z,100446.16
2022-10-24T08:18:39.943Z,100458.31
2022-10-24T08:21:08.869Z,100464.16
2022-10-24T08:23:37.188Z,100457.13
2022-10-24T08:26:05.934Z,100459.09
2022-10-24T08:28:32.478Z,100469.25
2022-10-24T08:31:01.392Z,100457.13
2022-10-24T08:33:28.253Z,100461.03
2022-10-24T08:36:00.207Z,100474.72
2022-10-24T08:38:28.056Z,100466.50
2022-10-24T08:40:54.972Z,100469.25
2022-10-24T08:43:22.430Z,100459.47
2022-10-24T08:46:31.132Z,100483.31
2022-10-24T08:49:08.938Z,100477.47
2022-10-24T08:51:54.590Z,100466.13
2022-10-24T08:54:27.500Z,100487.22
2022-10-24T08:56:57.991Z,100529.84
2022-10-24T08:59:26.893Z,100485.63
2022-10-24T09:02:12.623Z,100489.97
2022-10-24T09:04:48.966Z,100485.25
2022-10-24T09:07:21.491Z,100494.25
2022-10-24T09:09:51.196Z,100501.69
2022-10-24T09:12:20.667Z,100494.66
2022-10-24T09:14:53.277Z,100501.69
2022-10-24T09:17:34.935Z,100496.22
2022-10-24T09:20:17.706Z,100518.53
2022-10-24T09:22:44.958Z,100513.81
2022-10-24T09:25:19.318Z,100522.81
2022-10-24T09:27:46.427Z,100518.91
2022-10-24T09:30:19.756Z,100528.28
2022-10-24T09:32:47.083Z,100547.47
2022-10-24T09:35:20.778Z,100531.78
2022-10-24T09:37:55.214Z,100541.56
2022-10-24T09:40:28.461Z,100545.88
2022-10-24T09:43:00.890Z,100543.50
2022-10-24T09:45:32.397Z,100549.78
2022-10-24T09:48:03.068Z,100551.38
2022-10-24T09:50:35.432Z,100534.53
2022-10-24T09:53:04.345Z,100565.44
2022-10-24T09:55:31.984Z,100576.00
2022-10-24T09:58:04.078Z,100591.25
2022-10-24T10:00:36.019Z,100571.31
2022-10-24T10:03:04.683Z,100584.22
2022-10-24T10:05:49.451Z,100582.25
2022-10-24T10:08:22.615Z,100585.38
2022-10-24T10:10:59.277Z,100593.19
2022-10-24T10:13:27.813Z,100602.59
2022-10-24T10:15:58.771Z,100592.81
2022-10-24T10:18:31.238Z,100615.50
2022-10-24T10:21:13.354Z,100606.50
2022-10-24T10:23:39.728Z,100613.13
2022-10-24T10:26:11.265Z,100620.97
2022-10-24T10:28:45.842Z,100617.84
2022-10-24T10:31:12.634Z,100631.16
2022-10-24T10:33:59.165Z,100644.06
2022-10-24T10:36:43.199Z,100653.44
2022-10-24T10:39:41.873Z,100632.75
2022-10-24T10:42:28.126Z,100643.28
2022-10-24T10:45:32.647Z,100644.06
2022-10-24T10:48:08.928Z,100651.50
2022-10-24T10:50:41.648Z,100677.72
2022-10-24T10:53:26.020Z,100650.31
2022-10-24T10:56:00.193Z,100667.94
2022-10-24T10:58:34.392Z,100675.38
2022-10-24T11:01:23.991Z,100652.69
2022-10-24T11:04:00.972Z,100685.56
2022-10-24T11:06:41.535Z,100667.13
2022-10-24T11:09:25.766Z,100669.88
2022-10-24T11:11:59.535Z,100661.66
2022-10-24T11:14:46.927Z,100668.28
2022-10-24T11:17:42.062Z,100670.22
2022-10-24T11:20:26.816Z,100692.91
2022-10-24T11:23:15.447Z,100677.28
2022-10-24T11:26:01.988Z,100685.50
2022-10-24T11:28:35.768Z,100679.66
2022-10-24T11:31:18.450Z,100683.53
2022-10-24T11:33:51.946Z,100687.03
2022-10-24T11:36:34.218Z,100705.41
2022-10-24T11:39:28.857Z,100710.84
2022-10-24T11:42:15.702Z,100713.94
2022-10-24T11:45:10.658Z,100699.47
2022-10-24T11:47:55.330Z,100707.31
2022-10-24T11:50:27.441Z,100702.25
2022-10-24T11:53:12.443Z,100699.50
2022-10-24T11:55:47.100Z,100699.50
2022-10-24T11:58:21.223Z,100704.22
2022-10-24T12:01:06.540Z,100716.38
2022-10-24T12:03:39.029Z,100708.56
2022-10-24T12:06:37.654Z,100716.38
2022-10-24T12:09:09.782Z,100724.16
2022-10-24T12:11:45.273Z,100721.44
2022-10-24T12:14:42.205Z,100720.66
2022-10-24T12:17:35.989Z,100764.81
2022-10-24T12:20:05.734Z,100713.19
2022-10-24T12:22:41.492Z,100714.34
2022-10-24T12:25:37.517Z,100724.16
2022-10-24T12:28:08.588Z,100717.53
2022-10-24T12:30:36.631Z,100728.09
2022-10-24T12:33:24.250Z,100733.16
2022-10-24T12:35:54.498Z,100747.63
2022-10-24T12:38:26.951Z,100731.97
2022-10-24T12:40:58.599Z,100747.63
2022-10-24T12:43:35.524Z,100753.88
2022-10-24T12:46:24.242Z,100740.97
2022-10-24T12:48:56.415Z,100736.28
2022-10-24T12:51:32.037Z,100754.22
2022-10-24T12:54:15.893Z,100736.25
2022-10-24T12:56:51.307Z,100739.34
2022-10-24T12:59:32.068Z,100748.31
2022-10-24T13:02:30.573Z,100739.69
2022-10-24T13:05:09.008Z,100751.75
2022-10-24T13:07:56.310Z,100758.00
2022-10-24T13:10:45.420Z,100745.13
2022-10-24T13:13:27.819Z,100749.81
2022-10-24T13:16:07.297Z,100761.47
2022-10-24T13:19:04.079Z,100757.13
2022-10-24T13:24:21.797Z,100750.34
2022-10-24T13:27:12.737Z,100758.91
2022-10-24T13:29:39.546Z,100749.56
2022-10-24T13:32:05.960Z,100755.44
2022-10-24T13:34:54.573Z,100751.91
2022-10-24T13:37:27.522Z,100754.31
2022-10-24T13:40:32.469Z,100749.31
2022-10-24T13:43:14.630Z,100748.63
2022-10-24T13:45:53.421Z,100748.22
2022-10-24T13:48:23.028Z,100748.19
2022-10-24T13:51:02.565Z,100754.81
2022-10-24T13:53:33.253Z,100756.78
2022-10-24T13:56:04.549Z,100759.47
2022-10-24T13:58:42.099Z,100765.72
2022-10-24T14:01:22.481Z,100756.25
2022-10-24T14:03:50.179Z,100758.16
2022-10-24T14:06:22.451Z,100752.69
2022-10-24T14:09:02.805Z,100749.13
2022-10-24T14:11:32.618Z,100747.56
2022-10-24T14:14:04.306Z,100746.03
2022-10-24T14:16:34.201Z,100749.59
2022-10-24T14:19:13.609Z,100757.13
2022-10-24T14:21:46.019Z,100759.53
2022-10-24T14:24:17.570Z,100755.28
2022-10-24T14:26:47.907Z,100749.88
2022-10-24T14:29:32.421Z,100756.19
2022-10-24T14:32:01.929Z,100751.88
2022-10-24T14:34:33.923Z,100760.53
2022-10-24T14:37:08.801Z,100757.81
2022-10-24T14:39:36.901Z,100764.16
2022-10-24T14:42:03.696Z,100748.94
2022-10-24T14:44:30.387Z,100753.19
2022-10-24T14:47:20.642Z,100759.84
2022-10-24T14:49:47.328Z,100771.16
2022-10-24T14:52:32.311Z,100769.16
2022-10-24T14:55:26.799Z,100772.59
2022-10-24T14:57:54.216Z,100781.16
2022-10-24T15:00:23.501Z,100780.78
2022-10-24T15:02:52.583Z,100794.41
2022-10-24T15:05:18.959Z,100795.19
2022-10-24T15:08:16.688Z,100796.75
2022-10-24T15:10:41.407Z,100800.22
2022-10-24T15:13:10.713Z,100799.81
2022-10-24T15:15:57.827Z,100813.84
2022-10-24T15:18:29.077Z,100793.13
2022-10-24T15:21:07.155Z,100802.06
2022-10-24T15:23:37.807Z,100805.94
2022-10-24T15:26:18.589Z,100816.56
2022-10-24T15:28:48.503Z,100811.50
2022-10-24T15:31:18.210Z,100820.84
2022-10-24T15:33:45.349Z,100811.81
2022-10-24T15:36:20.705Z,100824.59
2022-10-24T15:38:48.551Z,100806.19
2022-10-24T15:41:16.038Z,100829.47
2022-10-24T15:43:42.489Z,100813.81
2022-10-24T15:46:08.923Z,100819.63
2022-10-24T15:48:35.412Z,100817.59
2022-10-24T15:51:01.873Z,100818.00
2022-10-24T15:53:28.348Z,100814.41
2022-10-24T15:55:54.842Z,100823.06
2022-10-24T15:58:21.447Z,100826.25
2022-10-24T16:00:48.246Z,100832.47
2022-10-24T16:03:22.551Z,100820.75
2022-10-24T16:05:55.962Z,100823.91
2022-10-24T16:08:24.006Z,100822.75
2022-10-24T16:10:52.432Z,100829.38
2022-10-24T16:13:21.356Z,100835.16
2022-10-24T16:15:49.162Z,100825.78
2022-10-24T16:18:16.954Z,100833.97
2022-10-24T16:20:43.747Z,100837.50
2022-10-24T16:23:13.705Z,100843.75
2022-10-24T16:25:40.404Z,100840.22
2022-10-24T16:28:08.117Z,100847.19
2022-10-24T16:30:37.299Z,100842.44
2022-10-24T16:33:03.795Z,100857.16
2022-10-24T16:35:33.491Z,100852.44
2022-10-24T16:38:01.498Z,100867.56
2022-10-24T16:40:29.293Z,100857.41
2022-10-24T16:42:58.192Z,100861.69
2022-10-24T16:45:25.802Z,100868.31
2022-10-24T16:47:52.352Z,100870.59
2022-10-24T16:50:24.000Z,100867.38
2022-10-24T16:52:55.645Z,100870.47
2022-10-24T16:55:22.485Z,100870.06
2022-10-24T16:57:49.404Z,100870.00
2022-10-24T17:00:18.121Z,100868.00
2022-10-24T17:02:46.949Z,100871.91
2022-10-24T17:05:13.749Z,100873.78
2022-10-24T17:07:41.082Z,100875.22
2022-10-24T17:10:09.442Z,100882.22
2022-10-24T17:12:35.900Z,100878.25
2022-10-24T17:15:02.500Z,100882.44
2022-10-24T17:17:30.174Z,100878.47
2022-10-24T17:19:56.784Z,100874.13
2022-10-24T17:22:23.512Z,100886.13
2022-10-24T17:24:50.354Z,100888.03
2022-10-24T17:27:17.087Z,100884.06
2022-10-24T17:29:44.811Z,100879.84
2022-10-24T17:32:13.104Z,100882.97
2022-10-24T17:34:42.019Z,100883.47
2022-10-24T17:37:23.529Z,100888.53
2022-10-24T17:39:51.949Z,100894.69
2022-10-24T17:42:19.331Z,100891.47
2022-10-24T17:44:47.588Z,100893.41
2022-10-24T17:47:15.428Z,100908.19
2022-10-24T17:49:45.498Z,100907.94
2022-10-24T17:52:17.574Z,100910.31
2022-10-24T17:54:45.775Z,100918.09
2022-10-24T17:57:12.457Z,100935.63
2022-10-24T17:59:38.944Z,100919.63
2022-10-24T18:02:05.726Z,100917.78
2022-10-24T18:07:03.824Z,100906.31
2022-10-24T18:09:30.430Z,100908.69
2022-10-24T18:11:57.657Z,100909.50
2022-10-24T18:14:24.193Z,100924.72
2022-10-24T18:16:50.639Z,100918.94
2022-10-24T18:19:17.150Z,100925.63
2022-10-24T18:21:43.826Z,100933.88
2022-10-24T18:24:10.292Z,100928.88
2022-10-24T18:26:36.696Z,100932.00
2022-10-24T18:29:03.447Z,100942.94
2022-10-24T18:31:31.103Z,100947.59
2022-10-24T18:34:04.951Z,100951.88
2022-10-24T18:36:34.792Z,100948.72
2022-10-24T18:39:01.484Z,100951.06
2022-10-24T18:41:30.471Z,100945.63
2022-10-24T18:43:59.401Z,100931.16
2022-10-24T18:46:26.590Z,100937.72
2022-10-24T18:48:53.464Z,100941.69
2022-10-24T18:51:33.380Z,100940.06
2022-10-24T18:54:07.041Z,100948.56
2022-10-24T18:56:34.193Z,100942.66
2022-10-24T18:59:00.778Z,100938.31
2022-10-24T19:01:56.115Z,100941.47
2022-10-24T19:04:25.519Z,100949.22
2022-10-24T19:06:57.416Z,100941.47
2022-10-24T19:09:25.696Z,100934.81
2022-10-24T19:11:52.789Z,100934.41
2022-10-24T19:14:20.994Z,100935.56
2022-10-24T19:16:50.530Z,100925.75
2022-10-24T19:19:26.579Z,100936.34
2022-10-24T19:21:53.361Z,100931.28
2022-10-24T19:24:19.917Z,100932.13
2022-10-24T19:26:46.477Z,100932.13
2022-10-24T19:29:13.127Z,100930.97
2022-10-24T19:31:39.759Z,100925.88
2022-10-24T19:34:06.368Z,100931.34
2022-10-24T19:36:34.212Z,100930.97
2022-10-24T19:39:00.945Z,100937.66
2022-10-24T19:41:27.474Z,100939.94
2022-10-24T19:43:54.329Z,100931.75
2022-10-24T19:46:20.929Z,100932.13
2022-10-24T19:48:53.002Z,100934.06
2022-10-24T19:51:20.651Z,100934.03
2022-10-24T19:53:47.930Z,100932.06
2022-10-24T19:56:19.125Z,100942.13
2022-10-24T19:58:47.827Z,100942.13
2022-10-24T20:01:18.075Z,100940.94
2022-10-24T20:03:46.836Z,100952.16
2022-10-24T20:06:14.219Z,100941.59
2022-10-24T20:08:41.372Z,100952.47
2022-10-24T20:11:08.940Z,100948.53
2022-10-24T20:13:35.926Z,100953.91
2022-10-24T20:16:05.881Z,100965.53
2022-10-24T20:18:34.535Z,100961.63
2022-10-24T20:21:06.739Z,100966.28
2022-10-24T20:23:33.792Z,100963.06
2022-10-24T20:26:09.535Z,100969.66
2022-10-24T20:28:43.028Z,100971.53
2022-10-24T20:31:27.861Z,100975.41
2022-10-24T20:33:57.920Z,100974.19
2022-10-24T20:36:24.523Z,100991.34
2022-10-24T20:38:50.978Z,100988.97
2022-10-24T20:41:17.426Z,100990.19
2022-10-24T20:43:43.883Z,100993.28
2022-10-24T20:46:10.561Z,100996.00
2022-10-24T20:48:37.045Z,100996.28
2022-10-24T20:51:05.606Z,101009.50
2022-10-24T20:53:32.525Z,101004.00
2022-10-24T20:56:05.238Z,101014.47
2022-10-24T20:58:31.685Z,101017.91
2022-10-24T21:00:58.228Z,101008.44
2022-10-24T21:03:24.829Z,101017.75
2022-10-24T21:05:51.258Z,101021.63
2022-10-24T21:08:17.779Z,101022.00
2022-10-24T21:10:44.243Z,101015.75
2022-10-24T21:13:10.670Z,101013.75
2022-10-24T21:15:37.135Z,101026.94
2022-10-24T21:18:05.187Z,101027.28
2022-10-24T21:20:31.800Z,101036.56
2022-10-24T21:22:58.390Z,101033.41
2022-10-24T21:25:24.858Z,101028.66
2022-10-24T21:27:51.447Z,101030.50
2022-10-24T21:30:17.969Z,101039.03
2022-10-24T21:32:44.446Z,101040.09
2022-10-24T21:35:10.934Z,101049.41
2022-10-24T21:37:37.424Z,101051.34
2022-10-24T21:40:04.215Z,101047.84
2022-10-24T21:42:31.374Z,101053.28
2022-10-24T21:44:58.143Z,101047.75
2022-10-24T21:47:24.671Z,101054.69
2022-10-24T21:49:51.094Z,101062.09
2022-10-24T21:52:17.498Z,101057.41
2022-10-24T21:54:44.003Z,101062.50
2022-10-24T21:57:10.456Z,101059.34
2022-10-24T21:59:38.863Z,101074.91
2022-10-24T22:02:05.504Z,101071.81
2022-10-24T22:04:31.987Z,101073.69
2022-10-24T22:06:58.411Z,101070.97
2022-10-24T22:09:24.983Z,101079.16
2022-10-24T22:11:51.725Z,101076.06
2022-10-24T22:14:18.513Z,101080.00
2022-10-24T22:16:45.267Z,101090.88
2022-10-24T22:19:13.874Z,101086.66
2022-10-24T22:21:46.186Z,101086.31
2022-10-24T22:24:15.639Z,101095.66
2022-10-24T22:26:42.370Z,101096.06
2022-10-24T22:29:10.213Z,101093.25
2022-10-24T22:31:37.091Z,101094.41
2022-10-24T22:34:04.437Z,101097.91
2022-10-24T22:36:40.032Z,101104.59
2022-10-24T22:39:16.501Z,101110.47
2022-10-24T22:41:44.653Z,101109.41
2022-10-24T22:44:12.738Z,101109.41
2022-10-24T22:47:06.793Z,101114.16
2022-10-24T22:50:08.726Z,101117.66
2022-10-24T22:52:35.376Z,101121.63
2022-10-24T22:55:03.995Z,101122.84
2022-10-24T22:57:31.204Z,101119.75
2022-10-24T22:59:57.873Z,101126.81
2022-10-24T23:02:36.386Z,101130.66
2022-10-24T23:05:11.552Z,101129.19
2022-10-24T23:07:57.327Z,101128.03
2022-10-24T23:10:25.502Z,101126.16
2022-10-24T23:12:52.630Z,101123.09
2022-10-24T23:15:21.181Z,101132.50
2022-10-24T23:17:49.436Z,101143.03
2022-10-24T23:20:35.862Z,101137.59
2022-10-24T23:23:15.778Z,101149.69
2022-10-24T23:25:50.050Z,101145.03
2022-10-24T23:28:29.814Z,101149.78
2022-10-24T23:30:56.614Z,101156.03
2022-10-24T23:33:27.570Z,101154.88
2022-10-24T23:35:58.751Z,101159.13
2022-10-24T23:38:26.139Z,101152.84
2022-10-24T23:40:53.204Z,101165.69
2022-10-24T23:43:21.658Z,101154.53
2022-10-24T23:46:13.510Z,101163.91
2022-10-24T23:48:45.807Z,101161.28
2022-10-24T23:51:17.389Z,101157.75
2022-10-24T23:53:54.875Z,101152.81
2022-10-24T23:56:29.092Z,101160.97
2022-10-24T23:58:56.118Z,101157.09
